DAL1257 KLAS-KLAX
Flight info
| Callsign | DAL1257 |
|---|---|
| Flight time | N/A |
| Altitude | 28000 |
| Route | RADYR2 BLAQQ SHTNR ANJLL4 |
| Aircraft | A333/H-SDE3GHIJ2J3J5M1RVWXY/LB2D1 |
Departure
| Time | 2026-05-04 01:27 |
|---|---|
| Airport | Harry Reid International Airport (KLAS) |
Arrival
| Time | N/A |
|---|---|
| Airport | Los Angeles International Airport (KLAX) |
| Time | Latitude | Longitude | Altitude | Speed | Heading |
|---|---|---|---|---|---|
| 2026-05-04 01:05 | 36.08070 | -115.12556 | 2104 ft | 0 kts | 89° |
| 2026-05-04 01:17 | 36.08070 | -115.12554 | 2104 ft | 1 kts | 89° |
| 2026-05-04 01:18 | 36.08070 | -115.12552 | 2104 ft | 0 kts | 89° |
| 2026-05-04 01:18 | 36.08070 | -115.12551 | 2104 ft | 0 kts | 89° |
| 2026-05-04 01:18 | 36.08070 | -115.12550 | 2104 ft | 0 kts | 89° |
| 2026-05-04 01:19 | 36.08070 | -115.12549 | 2104 ft | 0 kts | 89° |
| 2026-05-04 01:20 | 36.08070 | -115.12547 | 2104 ft | 0 kts | 89° |
| 2026-05-04 01:20 | 36.08070 | -115.12554 | 2104 ft | 2 kts | 89° |
| 2026-05-04 01:20 | 36.08070 | -115.12575 | 2104 ft | 2 kts | 89° |
| 2026-05-04 01:21 | 36.08069 | -115.12597 | 2105 ft | 3 kts | 107° |
| 2026-05-04 01:21 | 36.08079 | -115.12618 | 2107 ft | 3 kts | 153° |
| 2026-05-04 01:21 | 36.08084 | -115.12622 | 2106 ft | 0 kts | 168° |
| 2026-05-04 01:22 | 36.08054 | -115.12622 | 2107 ft | 8 kts | 184° |
| 2026-05-04 01:22 | 36.07966 | -115.12629 | 2113 ft | 17 kts | 181° |
| 2026-05-04 01:22 | 36.07838 | -115.12614 | 2118 ft | 16 kts | 159° |
| 2026-05-04 01:22 | 36.07818 | -115.12600 | 2119 ft | 1 kts | 131° |
| 2026-05-04 01:23 | 36.07817 | -115.12566 | 2119 ft | 9 kts | 91° |
| 2026-05-04 01:23 | 36.07819 | -115.12435 | 2124 ft | 19 kts | 89° |
| 2026-05-04 01:23 | 36.07805 | -115.12259 | 2125 ft | 20 kts | 114° |
| 2026-05-04 01:23 | 36.07752 | -115.12163 | 2129 ft | 0 kts | 130° |
| 2026-05-04 01:25 | 36.07750 | -115.12160 | 2129 ft | 3 kts | 131° |
| 2026-05-04 01:25 | 36.07708 | -115.12132 | 2127 ft | 11 kts | 166° |
| 2026-05-04 01:25 | 36.07639 | -115.12188 | 2129 ft | 13 kts | 253° |
| 2026-05-04 01:26 | 36.07639 | -115.12373 | 2129 ft | 45 kts | 270° |
| 2026-05-04 01:26 | 36.07633 | -115.13013 | 2127 ft | 104 kts | 271° |
| 2026-05-04 01:26 | 36.07632 | -115.14137 | 2128 ft | 156 kts | 270° |
| 2026-05-04 01:26 | 36.07639 | -115.15673 | 2130 ft | 200 kts | 270° |
| 2026-05-04 01:27 | 36.07689 | -115.17516 | 2415 ft | 226 kts | 267° |
| 2026-05-04 01:27 | 36.07714 | -115.19542 | 3049 ft | 246 kts | 266° |
| 2026-05-04 01:27 | 36.07647 | -115.21703 | 3870 ft | 256 kts | 261° |
| 2026-05-04 01:27 | 36.07454 | -115.23928 | 4814 ft | 263 kts | 257° |
| 2026-05-04 01:28 | 36.07032 | -115.26136 | 5797 ft | 265 kts | 248° |
| 2026-05-04 01:28 | 36.06307 | -115.28232 | 6784 ft | 266 kts | 238° |
| 2026-05-04 01:28 | 36.05305 | -115.30164 | 7725 ft | 270 kts | 231° |
| 2026-05-04 01:28 | 36.04093 | -115.32001 | 8446 ft | 282 kts | 227° |
| 2026-05-04 01:29 | 36.02751 | -115.33842 | 9200 ft | 294 kts | 225° |
| 2026-05-04 01:29 | 36.01295 | -115.35692 | 9927 ft | 304 kts | 223° |
| 2026-05-04 01:29 | 35.99763 | -115.37547 | 10655 ft | 312 kts | 223° |
| 2026-05-04 01:29 | 35.98191 | -115.39441 | 11433 ft | 319 kts | 223° |
| 2026-05-04 01:30 | 35.96591 | -115.41369 | 12228 ft | 324 kts | 223° |
| 2026-05-04 01:30 | 35.94978 | -115.43337 | 13055 ft | 327 kts | 222° |
| 2026-05-04 01:30 | 35.93230 | -115.45137 | 13850 ft | 328 kts | 212° |
| 2026-05-04 01:30 | 35.91248 | -115.46464 | 14602 ft | 329 kts | 203° |
| 2026-05-04 01:31 | 35.89084 | -115.47372 | 15391 ft | 329 kts | 194° |
| 2026-05-04 01:31 | 35.86823 | -115.47775 | 16186 ft | 329 kts | 184° |
| 2026-05-04 01:31 | 35.84542 | -115.47635 | 16998 ft | 329 kts | 174° |
| 2026-05-04 01:31 | 35.82292 | -115.47144 | 17815 ft | 327 kts | 172° |
| 2026-05-04 01:32 | 35.80073 | -115.46558 | 18575 ft | 323 kts | 171° |
| 2026-05-04 01:32 | 35.77900 | -115.45896 | 19300 ft | 320 kts | 170° |
| 2026-05-04 01:32 | 35.75713 | -115.45163 | 19594 ft | 332 kts | 170° |
| 2026-05-04 01:32 | 35.73474 | -115.44368 | 19834 ft | 343 kts | 169° |
| 2026-05-04 01:33 | 35.71159 | -115.43502 | 20100 ft | 353 kts | 168° |
| 2026-05-04 01:33 | 35.68786 | -115.42570 | 20399 ft | 362 kts | 168° |
| 2026-05-04 01:33 | 35.66369 | -115.41597 | 20755 ft | 369 kts | 168° |
| 2026-05-04 01:33 | 35.63909 | -115.40597 | 21138 ft | 374 kts | 169° |
| 2026-05-04 01:34 | 35.61420 | -115.39596 | 21531 ft | 379 kts | 170° |
| 2026-05-04 01:34 | 35.58898 | -115.38598 | 21934 ft | 383 kts | 171° |
| 2026-05-04 01:34 | 35.56338 | -115.37621 | 22356 ft | 385 kts | 173° |
| 2026-05-04 01:34 | 35.53743 | -115.36789 | 22784 ft | 385 kts | 176° |
| 2026-05-04 01:35 | 35.51121 | -115.36139 | 23219 ft | 384 kts | 180° |
| 2026-05-04 01:35 | 35.48480 | -115.35688 | 23607 ft | 382 kts | 184° |
| 2026-05-04 01:35 | 35.45839 | -115.35488 | 23985 ft | 378 kts | 188° |
| 2026-05-04 01:35 | 35.43230 | -115.35578 | 24396 ft | 371 kts | 194° |
| 2026-05-04 01:36 | 35.40692 | -115.35989 | 24839 ft | 364 kts | 199° |
| 2026-05-04 01:36 | 35.38270 | -115.36647 | 25284 ft | 358 kts | 204° |
| 2026-05-04 01:36 | 35.35940 | -115.37611 | 25730 ft | 350 kts | 211° |
| 2026-05-04 01:36 | 35.33764 | -115.38883 | 26184 ft | 342 kts | 217° |
| 2026-05-04 01:37 | 35.31734 | -115.40378 | 26648 ft | 339 kts | 219° |
| 2026-05-04 01:37 | 35.29722 | -115.41872 | 27090 ft | 337 kts | 219° |
| 2026-05-04 01:37 | 35.27712 | -115.43349 | 27525 ft | 336 kts | 219° |
| 2026-05-04 01:37 | 35.25712 | -115.44805 | 27963 ft | 334 kts | 218° |
| 2026-05-04 01:38 | 35.23720 | -115.46255 | 28364 ft | 331 kts | 220° |
| 2026-05-04 01:38 | 35.21788 | -115.47785 | 28686 ft | 331 kts | 221° |
| 2026-05-04 01:38 | 35.19841 | -115.49359 | 28741 ft | 339 kts | 221° |
| 2026-05-04 01:39 | 35.15829 | -115.52670 | 28770 ft | 357 kts | 221° |
| 2026-05-04 01:39 | 35.11682 | -115.56175 | 28796 ft | 373 kts | 222° |
| 2026-05-04 01:40 | 35.07341 | -115.59920 | 28783 ft | 389 kts | 222° |
| 2026-05-04 01:40 | 35.02821 | -115.63823 | 28789 ft | 406 kts | 221° |
| 2026-05-04 01:41 | 34.98156 | -115.67665 | 28783 ft | 398 kts | 220° |
| 2026-05-04 01:41 | 34.95862 | -115.69519 | 28765 ft | 384 kts | 221° |
| 2026-05-04 01:41 | 34.93730 | -115.71344 | 28761 ft | 375 kts | 223° |
| 2026-05-04 01:42 | 34.89699 | -115.75138 | 28723 ft | 357 kts | 226° |
| 2026-05-04 01:42 | 34.86071 | -115.79055 | 28685 ft | 340 kts | 230° |
| 2026-05-04 01:43 | 34.82845 | -115.83113 | 28594 ft | 326 kts | 234° |
| 2026-05-04 01:43 | 34.80491 | -115.86584 | 28542 ft | 315 kts | 237° |
| 2026-05-04 01:44 | 34.77965 | -115.90855 | 28459 ft | 306 kts | 240° |
| 2026-05-04 01:44 | 34.75750 | -115.95204 | 28373 ft | 298 kts | 244° |
| 2026-05-04 01:44 | 34.74761 | -115.97407 | 28328 ft | 295 kts | 245° |
| 2026-05-04 01:45 | 34.73818 | -115.99612 | 28279 ft | 293 kts | 245° |
| 2026-05-04 01:45 | 34.72906 | -116.01817 | 28217 ft | 291 kts | 246° |
| 2026-05-04 01:45 | 34.72078 | -116.06401 | 28445 ft | 276 kts | 265° |
| 2026-05-04 01:46 | 34.71966 | -116.08719 | 28372 ft | 274 kts | 261° |
| 2026-05-04 01:46 | 34.71603 | -116.10985 | 28278 ft | 273 kts | 254° |
| 2026-05-04 01:46 | 34.70938 | -116.13144 | 28186 ft | 273 kts | 246° |
| 2026-05-04 01:46 | 34.70069 | -116.15207 | 28104 ft | 273 kts | 245° |
| 2026-05-04 01:47 | 34.69134 | -116.17223 | 28006 ft | 274 kts | 243° |
| 2026-05-04 01:47 | 34.68132 | -116.19192 | 27919 ft | 274 kts | 241° |
| 2026-05-04 01:47 | 34.67054 | -116.21116 | 27838 ft | 276 kts | 239° |
| 2026-05-04 01:47 | 34.65915 | -116.22968 | 27761 ft | 279 kts | 237° |
| 2026-05-04 01:48 | 34.64673 | -116.24808 | 27698 ft | 283 kts | 235° |
| 2026-05-04 01:48 | 34.63403 | -116.26654 | 27633 ft | 285 kts | 235° |
| 2026-05-04 01:48 | 34.62145 | -116.28516 | 27637 ft | 285 kts | 236° |
| 2026-05-04 01:48 | 34.60904 | -116.30398 | 27644 ft | 286 kts | 237° |
| 2026-05-04 01:49 | 34.59677 | -116.32310 | 27656 ft | 289 kts | 237° |
| 2026-05-04 01:49 | 34.58455 | -116.34273 | 27673 ft | 293 kts | 238° |
| 2026-05-04 01:49 | 34.57239 | -116.36292 | 27702 ft | 298 kts | 238° |
| 2026-05-04 01:49 | 34.56015 | -116.38348 | 27740 ft | 303 kts | 237° |
| 2026-05-04 01:50 | 34.54706 | -116.40384 | 27770 ft | 309 kts | 236° |
| 2026-05-04 01:50 | 34.53310 | -116.42393 | 27809 ft | 314 kts | 233° |
| 2026-05-04 01:50 | 34.51787 | -116.44342 | 27791 ft | 322 kts | 230° |
| 2026-05-04 01:50 | 34.50146 | -116.46234 | 27653 ft | 330 kts | 229° |
| 2026-05-04 01:51 | 34.48460 | -116.48161 | 27204 ft | 336 kts | 229° |
| 2026-05-04 01:51 | 34.46749 | -116.50139 | 26633 ft | 344 kts | 229° |
| 2026-05-04 01:51 | 34.45023 | -116.52162 | 25921 ft | 356 kts | 229° |
| 2026-05-04 01:51 | 34.43237 | -116.54291 | 25133 ft | 362 kts | 229° |
| 2026-05-04 01:52 | 34.41451 | -116.56478 | 24355 ft | 368 kts | 230° |
| 2026-05-04 01:52 | 34.39677 | -116.58752 | 23462 ft | 376 kts | 230° |
| 2026-05-04 01:52 | 34.37893 | -116.61123 | 22444 ft | 384 kts | 231° |
| 2026-05-04 01:52 | 34.36117 | -116.63563 | 21566 ft | 388 kts | 231° |
| 2026-05-04 01:53 | 34.34359 | -116.66069 | 20693 ft | 391 kts | 232° |
| 2026-05-04 01:53 | 34.32642 | -116.68635 | 19865 ft | 393 kts | 233° |
| 2026-05-04 01:53 | 34.30967 | -116.71257 | 19074 ft | 395 kts | 234° |
| 2026-05-04 01:53 | 34.29339 | -116.73921 | 18369 ft | 392 kts | 236° |
| 2026-05-04 01:54 | 34.27762 | -116.76606 | 17697 ft | 391 kts | 236° |
| 2026-05-04 01:54 | 34.26228 | -116.79317 | 16946 ft | 390 kts | 237° |
| 2026-05-04 01:54 | 34.24784 | -116.82084 | 16229 ft | 388 kts | 239° |
| 2026-05-04 01:54 | 34.23450 | -116.84914 | 15536 ft | 387 kts | 242° |
| 2026-05-04 01:55 | 34.22247 | -116.87775 | 14930 ft | 385 kts | 244° |
| 2026-05-04 01:55 | 34.21181 | -116.90738 | 14282 ft | 383 kts | 247° |
| 2026-05-04 01:55 | 34.20304 | -116.93774 | 13673 ft | 382 kts | 251° |
| 2026-05-04 01:55 | 34.19611 | -116.96857 | 13055 ft | 379 kts | 254° |
| 2026-05-04 01:56 | 34.19014 | -116.99939 | 12466 ft | 375 kts | 255° |
| 2026-05-04 01:56 | 34.18474 | -117.03025 | 11836 ft | 372 kts | 256° |
| 2026-05-04 01:56 | 34.17965 | -117.06083 | 11293 ft | 369 kts | 256° |
| 2026-05-04 01:56 | 34.17484 | -117.09070 | 10787 ft | 364 kts | 256° |
| 2026-05-04 01:57 | 34.17023 | -117.12042 | 10433 ft | 355 kts | 256° |
| 2026-05-04 01:57 | 34.16586 | -117.14926 | 10255 ft | 342 kts | 256° |
| 2026-05-04 01:57 | 34.16140 | -117.17681 | 10142 ft | 326 kts | 255° |
| 2026-05-04 01:57 | 34.15662 | -117.20306 | 10115 ft | 315 kts | 254° |
| 2026-05-04 01:58 | 34.15123 | -117.22838 | 9999 ft | 307 kts | 252° |
| 2026-05-04 01:58 | 34.14520 | -117.25273 | 9911 ft | 299 kts | 250° |
| 2026-05-04 01:58 | 34.13888 | -117.27612 | 9894 ft | 288 kts | 249° |
| 2026-05-04 01:58 | 34.13233 | -117.29857 | 9875 ft | 279 kts | 248° |
| 2026-05-04 01:59 | 34.12557 | -117.32015 | 9833 ft | 270 kts | 246° |
| 2026-05-04 01:59 | 34.11859 | -117.34085 | 9795 ft | 263 kts | 245° |
| 2026-05-04 01:59 | 34.11135 | -117.36077 | 9734 ft | 256 kts | 243° |
| 2026-05-04 01:59 | 34.10415 | -117.38023 | 9580 ft | 253 kts | 245° |
| 2026-05-04 02:00 | 34.09762 | -117.40000 | 9362 ft | 255 kts | 248° |
| 2026-05-04 02:00 | 34.09214 | -117.42004 | 9317 ft | 250 kts | 251° |
| 2026-05-04 02:00 | 34.08805 | -117.44003 | 9412 ft | 242 kts | 255° |
| 2026-05-04 02:00 | 34.08507 | -117.45989 | 9359 ft | 239 kts | 258° |
| 2026-05-04 02:01 | 34.08278 | -117.47993 | 9285 ft | 237 kts | 260° |
| 2026-05-04 02:01 | 34.08124 | -117.49950 | 9306 ft | 232 kts | 262° |
| 2026-05-04 02:01 | 34.08023 | -117.51852 | 9295 ft | 228 kts | 264° |
| 2026-05-04 02:01 | 34.07953 | -117.53760 | 9288 ft | 225 kts | 264° |
| 2026-05-04 02:02 | 34.07897 | -117.55640 | 9264 ft | 223 kts | 264° |
| 2026-05-04 02:02 | 34.07852 | -117.57509 | 9245 ft | 222 kts | 264° |
| 2026-05-04 02:02 | 34.07747 | -117.59366 | 9215 ft | 223 kts | 261° |
| 2026-05-04 02:02 | 34.07600 | -117.61242 | 9190 ft | 225 kts | 260° |
| 2026-05-04 02:03 | 34.07357 | -117.63126 | 9176 ft | 229 kts | 255° |
| 2026-05-04 02:03 | 34.06945 | -117.65006 | 9178 ft | 234 kts | 249° |
| 2026-05-04 02:03 | 34.06336 | -117.66859 | 9197 ft | 240 kts | 243° |
| 2026-05-04 02:03 | 34.05580 | -117.68683 | 9232 ft | 247 kts | 242° |
| 2026-05-04 02:04 | 34.04788 | -117.70590 | 9172 ft | 260 kts | 242° |
| 2026-05-04 02:04 | 34.03992 | -117.72573 | 9091 ft | 272 kts | 245° |
| 2026-05-04 02:04 | 34.03341 | -117.74778 | 8960 ft | 287 kts | 252° |
| 2026-05-04 02:04 | 34.02809 | -117.77165 | 8757 ft | 302 kts | 253° |
| 2026-05-04 02:05 | 34.02224 | -117.79670 | 8307 ft | 315 kts | 252° |
| 2026-05-04 02:05 | 34.01622 | -117.82281 | 7838 ft | 341 kts | 253° |
| 2026-05-04 02:05 | 34.00950 | -117.85102 | 7344 ft | 351 kts | 251° |
| 2026-05-04 02:05 | 34.00258 | -117.87888 | 6933 ft | 343 kts | 251° |
| 2026-05-04 02:06 | 33.99610 | -117.90593 | 6852 ft | 327 kts | 253° |
| 2026-05-04 02:06 | 33.99038 | -117.93168 | 6854 ft | 311 kts | 254° |
| 2026-05-04 02:06 | 33.98514 | -117.95680 | 6874 ft | 309 kts | 254° |
| 2026-05-04 02:06 | 33.98122 | -117.98231 | 6887 ft | 311 kts | 261° |
| 2026-05-04 02:07 | 33.98026 | -118.00843 | 6857 ft | 314 kts | 269° |
| 2026-05-04 02:07 | 33.98140 | -118.03488 | 6398 ft | 318 kts | 271° |
| 2026-05-04 02:07 | 33.98238 | -118.06163 | 5837 ft | 320 kts | 269° |
| 2026-05-04 02:07 | 33.98269 | -118.08846 | 5231 ft | 322 kts | 269° |
| 2026-05-04 02:08 | 33.98264 | -118.11554 | 4556 ft | 325 kts | 269° |
| 2026-05-04 02:08 | 33.98249 | -118.14259 | 3742 ft | 331 kts | 268° |
| 2026-05-04 02:08 | 33.98228 | -118.16524 | 3048 ft | 337 kts | 268° |
| 2026-05-04 02:08 | 33.98187 | -118.19319 | 2409 ft | 337 kts | 267° |
| 2026-05-04 02:09 | 33.98023 | -118.22077 | 2168 ft | 323 kts | 263° |
| 2026-05-04 02:09 | 33.97683 | -118.24685 | 1986 ft | 308 kts | 258° |
| 2026-05-04 02:09 | 33.97245 | -118.27144 | 1919 ft | 292 kts | 256° |